Qaarsut

KL  EN  DA
ASIAQ
Weather Now GREENLAND SURVEY
Updated [WGT/WGST] Temperature [°C] Wind [m/s] Air pressure [hPa] Relative humidity [%] Precipitation [mm]
Present Wind chill Speed Max
27.09 02:00-3,9-9,54,6 ⇖6,01012500,0
27.09 01:00-2,7-8,55,3 ⇖6,71012430,0
27.09 00:00-2,8-8,75,4 ⇖6,81012440,0
26.09 23:00-2,7-4,91,6 ⇑2,61012410,0
26.09 22:00-2,5-6,02,5 ⇖4,61011450,0
26.09 21:00-2,3-4,21,4 ⇙2,41011400,0
26.09 20:00-3,5-8,64,0 ⇖5,71011490,0
26.09 19:00-2,7-7,33,7 ⇖4,51011440,0
26.09 18:00-1,4-6,24,3 ⇖6,21010370,0
26.09 17:00-3,0-7,83,8 ⇖5,11010410,0
26.09 16:00-0,9-4,02,5 ⇑6,51010330,0
26.09 15:00-1,8-7,04,7 ⇖6,01010340,0
26.09 14:00-1,3-5,53,5 ⇖5,01010310,0
26.09 13:00-1,9-7,14,6 ⇑6,51010330,0
26.09 12:00-2,6-6,02,5 ⇖4,31010330,0
26.09 11:00-3,7-8,53,6 ⇖5,21010370,0
26.09 10:00-4,0-8,73,4 ⇑5,51010370,0
26.09 09:00-5,5-11,03,9 ⇖4,51010430,0
26.09 08:00-6,50,0n/an/an/a450,0
26.09 07:00-6,3-9,51,8 ⇑2,51011440,0
26.09 06:00-7,1-12,73,7 ⇖4,61010520,0
26.09 05:00-7,0-10,92,2 ⇖3,11011480,0
26.09 04:00-6,3-10,22,3 ⇑2,91010470,0
26.09 03:00-6,8-11,32,7 ⇖3,31010480,0
26.09 02:00-6,7-11,83,3 ⇑4,11010500,0
Position: (70.73333333,-52.7)

[Back]